sensor_id;sensor_type;location;lat;lon;timestamp;P1;durP1;ratioP1;P2;durP2;ratioP2
24619;SDS011;12763;55.802;37.404;2022-07-29T00:00:53;3.10;;;1.25;;
24619;SDS011;12763;55.802;37.404;2022-07-29T00:03:19;6.07;;;2.00;;
24619;SDS011;12763;55.802;37.404;2022-07-29T00:05:45;10.70;;;1.77;;
24619;SDS011;12763;55.802;37.404;2022-07-29T00:08:11;4.20;;;1.95;;
24619;SDS011;12763;55.802;37.404;2022-07-29T00:10:37;3.53;;;1.48;;
24619;SDS011;12763;55.802;37.404;2022-07-29T00:13:03;3.03;;;1.67;;
24619;SDS011;12763;55.802;37.404;2022-07-29T00:15:29;4.38;;;1.50;;
24619;SDS011;12763;55.802;37.404;2022-07-29T00:17:55;3.90;;;1.58;;
24619;SDS011;12763;55.802;37.404;2022-07-29T00:20:22;2.05;;;1.70;;
24619;SDS011;12763;55.802;37.404;2022-07-29T00:22:47;2.35;;;1.60;;
24619;SDS011;12763;55.802;37.404;2022-07-29T00:25:14;2.83;;;1.55;;
24619;SDS011;12763;55.802;37.404;2022-07-29T00:27:40;5.95;;;1.63;;
24619;SDS011;12763;55.802;37.404;2022-07-29T00:30:06;10.98;;;1.92;;
24619;SDS011;12763;55.802;37.404;2022-07-29T00:32:33;6.47;;;1.98;;
24619;SDS011;12763;55.802;37.404;2022-07-29T00:34:59;2.08;;;1.52;;
24619;SDS011;12763;55.802;37.404;2022-07-29T00:37:44;2.97;;;1.60;;
24619;SDS011;12763;55.802;37.404;2022-07-29T00:40:10;4.47;;;1.92;;
24619;SDS011;12763;55.802;37.404;2022-07-29T00:42:44;6.72;;;1.60;;
24619;SDS011;12763;55.802;37.404;2022-07-29T00:45:15;4.25;;;1.60;;
24619;SDS011;12763;55.802;37.404;2022-07-29T00:47:41;7.10;;;2.10;;
24619;SDS011;12763;55.802;37.404;2022-07-29T00:50:08;2.78;;;1.70;;
24619;SDS011;12763;55.802;37.404;2022-07-29T00:52:36;4.80;;;1.90;;
24619;SDS011;12763;55.802;37.404;2022-07-29T00:55:05;5.97;;;1.73;;
24619;SDS011;12763;55.802;37.404;2022-07-29T00:57:34;3.33;;;1.60;;
24619;SDS011;12763;55.802;37.404;2022-07-29T01:00:01;1.92;;;1.55;;
24619;SDS011;12763;55.802;37.404;2022-07-29T01:02:32;4.57;;;1.80;;
24619;SDS011;12763;55.802;37.404;2022-07-29T01:04:58;5.22;;;1.80;;
24619;SDS011;12763;55.802;37.404;2022-07-29T01:07:25;2.28;;;1.90;;
24619;SDS011;12763;55.802;37.404;2022-07-29T01:09:52;2.20;;;1.85;;
24619;SDS011;12763;55.802;37.404;2022-07-29T01:12:21;8.50;;;2.30;;
24619;SDS011;12763;55.802;37.404;2022-07-29T01:14:49;2.85;;;1.63;;
24619;SDS011;12763;55.802;37.404;2022-07-29T01:17:19;8.30;;;2.10;;
24619;SDS011;12763;55.802;37.404;2022-07-29T01:34:24;3.35;;;1.90;;
24619;SDS011;12763;55.802;37.404;2022-07-29T01:37:08;5.40;;;2.17;;
24619;SDS011;12763;55.802;37.404;2022-07-29T01:39:43;3.50;;;2.60;;
24619;SDS011;12763;55.802;37.404;2022-07-29T01:47:28;6.20;;;3.80;;
24619;SDS011;12763;55.802;37.404;2022-07-29T01:50:00;13.98;;;3.95;;
24619;SDS011;12763;55.802;37.404;2022-07-29T01:52:34;3.22;;;2.85;;
24619;SDS011;12763;55.802;37.404;2022-07-29T01:55:09;5.35;;;3.35;;
24619;SDS011;12763;55.802;37.404;2022-07-29T01:57:39;7.22;;;3.35;;
24619;SDS011;12763;55.802;37.404;2022-07-29T02:00:07;3.13;;;2.80;;
24619;SDS011;12763;55.802;37.404;2022-07-29T02:02:38;8.52;;;2.72;;
24619;SDS011;12763;55.802;37.404;2022-07-29T02:05:07;2.80;;;2.50;;
24619;SDS011;12763;55.802;37.404;2022-07-29T02:07:37;3.10;;;2.33;;
24619;SDS011;12763;55.802;37.404;2022-07-29T02:10:09;7.07;;;2.95;;
24619;SDS011;12763;55.802;37.404;2022-07-29T02:12:37;6.95;;;2.47;;
24619;SDS011;12763;55.802;37.404;2022-07-29T02:15:25;4.85;;;2.38;;
24619;SDS011;12763;55.802;37.404;2022-07-29T02:17:55;10.50;;;2.60;;
24619;SDS011;12763;55.802;37.404;2022-07-29T02:20:25;5.85;;;2.25;;
24619;SDS011;12763;55.802;37.404;2022-07-29T02:22:52;5.75;;;2.28;;
24619;SDS011;12763;55.802;37.404;2022-07-29T02:25:20;6.72;;;2.60;;
24619;SDS011;12763;55.802;37.404;2022-07-29T02:27:48;6.75;;;2.47;;
24619;SDS011;12763;55.802;37.404;2022-07-29T02:30:16;3.88;;;2.30;;
24619;SDS011;12763;55.802;37.404;2022-07-29T02:32:43;4.82;;;2.67;;
24619;SDS011;12763;55.802;37.404;2022-07-29T02:35:13;7.45;;;2.70;;
24619;SDS011;12763;55.802;37.404;2022-07-29T02:37:41;2.88;;;2.35;;
24619;SDS011;12763;55.802;37.404;2022-07-29T02:40:12;9.55;;;2.83;;
24619;SDS011;12763;55.802;37.404;2022-07-29T02:42:41;6.15;;;2.92;;
24619;SDS011;12763;55.802;37.404;2022-07-29T02:45:09;7.93;;;2.45;;
24619;SDS011;12763;55.802;37.404;2022-07-29T02:47:37;4.60;;;2.50;;
24619;SDS011;12763;55.802;37.404;2022-07-29T02:55:38;3.60;;;2.22;;
24619;SDS011;12763;55.802;37.404;2022-07-29T02:58:14;7.47;;;2.65;;
24619;SDS011;12763;55.802;37.404;2022-07-29T03:00:48;5.78;;;2.35;;
24619;SDS011;12763;55.802;37.404;2022-07-29T03:03:17;3.97;;;2.50;;
24619;SDS011;12763;55.802;37.404;2022-07-29T03:05:46;7.00;;;2.35;;
24619;SDS011;12763;55.802;37.404;2022-07-29T03:08:12;5.75;;;2.17;;
24619;SDS011;12763;55.802;37.404;2022-07-29T03:10:43;7.20;;;2.30;;
24619;SDS011;12763;55.802;37.404;2022-07-29T03:13:11;3.47;;;1.92;;
24619;SDS011;12763;55.802;37.404;2022-07-29T03:15:39;5.22;;;2.30;;
24619;SDS011;12763;55.802;37.404;2022-07-29T03:18:07;8.80;;;2.20;;
24619;SDS011;12763;55.802;37.404;2022-07-29T03:20:33;9.43;;;2.00;;
24619;SDS011;12763;55.802;37.404;2022-07-29T03:22:59;3.03;;;2.05;;
24619;SDS011;12763;55.802;37.404;2022-07-29T03:25:25;7.68;;;2.20;;
24619;SDS011;12763;55.802;37.404;2022-07-29T03:27:52;7.60;;;2.10;;
24619;SDS011;12763;55.802;37.404;2022-07-29T03:30:18;3.38;;;1.70;;
24619;SDS011;12763;55.802;37.404;2022-07-29T03:32:44;4.43;;;2.08;;
24619;SDS011;12763;55.802;37.404;2022-07-29T03:35:10;4.32;;;2.05;;
24619;SDS011;12763;55.802;37.404;2022-07-29T03:37:36;4.38;;;2.25;;
24619;SDS011;12763;55.802;37.404;2022-07-29T03:40:03;6.82;;;2.78;;
24619;SDS011;12763;55.802;37.404;2022-07-29T03:42:32;7.13;;;2.35;;
24619;SDS011;12763;55.802;37.404;2022-07-29T03:45:05;2.67;;;2.40;;
24619;SDS011;12763;55.802;37.404;2022-07-29T03:47:35;7.25;;;2.45;;
24619;SDS011;12763;55.802;37.404;2022-07-29T03:50:08;6.15;;;2.58;;
24619;SDS011;12763;55.802;37.404;2022-07-29T03:52:37;5.97;;;2.38;;
24619;SDS011;12763;55.802;37.404;2022-07-29T03:55:03;10.48;;;2.45;;
24619;SDS011;12763;55.802;37.404;2022-07-29T03:57:30;4.15;;;2.03;;
24619;SDS011;12763;55.802;37.404;2022-07-29T03:59:57;5.72;;;2.35;;
24619;SDS011;12763;55.802;37.404;2022-07-29T04:02:26;3.58;;;1.90;;
24619;SDS011;12763;55.802;37.404;2022-07-29T04:04:52;2.83;;;1.75;;
24619;SDS011;12763;55.802;37.404;2022-07-29T04:07:18;4.13;;;2.15;;
24619;SDS011;12763;55.802;37.404;2022-07-29T04:09:44;8.32;;;2.40;;
24619;SDS011;12763;55.802;37.404;2022-07-29T04:12:10;6.50;;;1.88;;
24619;SDS011;12763;55.802;37.404;2022-07-29T04:14:36;7.43;;;1.95;;
24619;SDS011;12763;55.802;37.404;2022-07-29T04:17:02;3.05;;;1.80;;
24619;SDS011;12763;55.802;37.404;2022-07-29T04:19:29;2.92;;;2.08;;
24619;SDS011;12763;55.802;37.404;2022-07-29T04:21:56;8.70;;;2.10;;
24619;SDS011;12763;55.802;37.404;2022-07-29T04:24:23;5.93;;;2.10;;
24619;SDS011;12763;55.802;37.404;2022-07-29T04:26:49;9.57;;;2.03;;
24619;SDS011;12763;55.802;37.404;2022-07-29T04:29:16;3.88;;;1.85;;
24619;SDS011;12763;55.802;37.404;2022-07-29T04:31:42;5.82;;;2.22;;
24619;SDS011;12763;55.802;37.404;2022-07-29T04:34:09;6.18;;;1.90;;
24619;SDS011;12763;55.802;37.404;2022-07-29T04:36:35;2.97;;;1.63;;
24619;SDS011;12763;55.802;37.404;2022-07-29T04:39:02;6.18;;;1.85;;
24619;SDS011;12763;55.802;37.404;2022-07-29T04:41:28;3.80;;;1.70;;
24619;SDS011;12763;55.802;37.404;2022-07-29T04:43:54;3.22;;;1.60;;
24619;SDS011;12763;55.802;37.404;2022-07-29T04:46:20;4.95;;;1.45;;
24619;SDS011;12763;55.802;37.404;2022-07-29T04:48:46;3.08;;;1.63;;
24619;SDS011;12763;55.802;37.404;2022-07-29T04:51:13;5.10;;;1.48;;
24619;SDS011;12763;55.802;37.404;2022-07-29T04:53:42;3.85;;;2.22;;
24619;SDS011;12763;55.802;37.404;2022-07-29T04:56:08;5.38;;;2.00;;
24619;SDS011;12763;55.802;37.404;2022-07-29T04:58:34;3.38;;;1.45;;
24619;SDS011;12763;55.802;37.404;2022-07-29T05:01:01;8.77;;;1.70;;
24619;SDS011;12763;55.802;37.404;2022-07-29T05:03:27;3.47;;;1.48;;
24619;SDS011;12763;55.802;37.404;2022-07-29T05:05:53;2.13;;;1.70;;
24619;SDS011;12763;55.802;37.404;2022-07-29T05:08:19;8.57;;;1.63;;
24619;SDS011;12763;55.802;37.404;2022-07-29T05:10:45;3.60;;;1.60;;
24619;SDS011;12763;55.802;37.404;2022-07-29T05:13:10;2.83;;;1.90;;
24619;SDS011;12763;55.802;37.404;2022-07-29T05:15:36;3.47;;;1.98;;
24619;SDS011;12763;55.802;37.404;2022-07-29T05:18:03;3.75;;;1.65;;
24619;SDS011;12763;55.802;37.404;2022-07-29T05:20:29;2.20;;;1.55;;
24619;SDS011;12763;55.802;37.404;2022-07-29T05:22:59;4.65;;;2.08;;
24619;SDS011;12763;55.802;37.404;2022-07-29T05:25:27;2.63;;;1.63;;
24619;SDS011;12763;55.802;37.404;2022-07-29T05:27:54;3.90;;;1.75;;
24619;SDS011;12763;55.802;37.404;2022-07-29T05:30:20;3.58;;;1.60;;
24619;SDS011;12763;55.802;37.404;2022-07-29T05:32:47;1.83;;;1.55;;
24619;SDS011;12763;55.802;37.404;2022-07-29T05:35:13;2.75;;;1.33;;
24619;SDS011;12763;55.802;37.404;2022-07-29T05:37:40;3.30;;;1.70;;
24619;SDS011;12763;55.802;37.404;2022-07-29T05:40:06;5.63;;;2.03;;
24619;SDS011;12763;55.802;37.404;2022-07-29T05:42:33;3.35;;;1.35;;
24619;SDS011;12763;55.802;37.404;2022-07-29T05:45:00;3.83;;;1.75;;
24619;SDS011;12763;55.802;37.404;2022-07-29T05:47:29;2.22;;;1.50;;
24619;SDS011;12763;55.802;37.404;2022-07-29T05:49:55;4.68;;;1.75;;
24619;SDS011;12763;55.802;37.404;2022-07-29T05:52:22;5.13;;;1.75;;
24619;SDS011;12763;55.802;37.404;2022-07-29T05:54:48;5.88;;;1.80;;
24619;SDS011;12763;55.802;37.404;2022-07-29T05:57:15;3.17;;;1.50;;
24619;SDS011;12763;55.802;37.404;2022-07-29T05:59:45;3.42;;;1.50;;
24619;SDS011;12763;55.802;37.404;2022-07-29T06:02:11;6.15;;;1.65;;
24619;SDS011;12763;55.802;37.404;2022-07-29T06:04:37;3.85;;;1.38;;
24619;SDS011;12763;55.802;37.404;2022-07-29T06:07:03;7.57;;;1.90;;
24619;SDS011;12763;55.802;37.404;2022-07-29T06:09:29;3.15;;;1.40;;
24619;SDS011;12763;55.802;37.404;2022-07-29T06:11:55;1.88;;;1.38;;
24619;SDS011;12763;55.802;37.404;2022-07-29T06:14:21;1.50;;;1.30;;
24619;SDS011;12763;55.802;37.404;2022-07-29T06:16:47;3.80;;;1.48;;
24619;SDS011;12763;55.802;37.404;2022-07-29T06:19:13;3.38;;;1.40;;
24619;SDS011;12763;55.802;37.404;2022-07-29T06:21:42;2.45;;;1.52;;
24619;SDS011;12763;55.802;37.404;2022-07-29T06:24:10;4.05;;;1.55;;
24619;SDS011;12763;55.802;37.404;2022-07-29T06:26:37;7.20;;;1.38;;
24619;SDS011;12763;55.802;37.404;2022-07-29T06:29:04;6.00;;;1.63;;
24619;SDS011;12763;55.802;37.404;2022-07-29T06:31:30;4.85;;;1.40;;
24619;SDS011;12763;55.802;37.404;2022-07-29T06:33:56;2.65;;;1.40;;
24619;SDS011;12763;55.802;37.404;2022-07-29T06:36:22;4.90;;;1.52;;
24619;SDS011;12763;55.802;37.404;2022-07-29T06:38:48;2.63;;;1.30;;
24619;SDS011;12763;55.802;37.404;2022-07-29T06:41:14;3.05;;;1.50;;
24619;SDS011;12763;55.802;37.404;2022-07-29T06:43:42;2.90;;;1.58;;
24619;SDS011;12763;55.802;37.404;2022-07-29T06:46:12;5.20;;;1.33;;
24619;SDS011;12763;55.802;37.404;2022-07-29T06:48:40;4.90;;;1.75;;
24619;SDS011;12763;55.802;37.404;2022-07-29T06:51:08;3.63;;;1.48;;
24619;SDS011;12763;55.802;37.404;2022-07-29T06:53:35;2.58;;;1.48;;
24619;SDS011;12763;55.802;37.404;2022-07-29T06:56:02;3.65;;;1.52;;
24619;SDS011;12763;55.802;37.404;2022-07-29T06:58:29;3.30;;;1.45;;
24619;SDS011;12763;55.802;37.404;2022-07-29T07:00:56;1.67;;;1.48;;
24619;SDS011;12763;55.802;37.404;2022-07-29T07:03:23;2.40;;;1.40;;
24619;SDS011;12763;55.802;37.404;2022-07-29T07:05:51;3.00;;;1.40;;
24619;SDS011;12763;55.802;37.404;2022-07-29T07:08:18;2.03;;;1.23;;
24619;SDS011;12763;55.802;37.404;2022-07-29T07:10:45;4.18;;;1.35;;
24619;SDS011;12763;55.802;37.404;2022-07-29T07:13:12;3.60;;;1.50;;
24619;SDS011;12763;55.802;37.404;2022-07-29T07:15:38;1.92;;;1.25;;
24619;SDS011;12763;55.802;37.404;2022-07-29T07:18:04;3.00;;;1.27;;
24619;SDS011;12763;55.802;37.404;2022-07-29T07:20:31;4.88;;;1.55;;
24619;SDS011;12763;55.802;37.404;2022-07-29T07:23:01;1.52;;;1.20;;
24619;SDS011;12763;55.802;37.404;2022-07-29T07:25:27;2.80;;;1.42;;
24619;SDS011;12763;55.802;37.404;2022-07-29T07:27:53;4.50;;;1.38;;
24619;SDS011;12763;55.802;37.404;2022-07-29T07:30:19;3.03;;;1.20;;
24619;SDS011;12763;55.802;37.404;2022-07-29T07:32:46;2.83;;;1.25;;
24619;SDS011;12763;55.802;37.404;2022-07-29T07:35:12;2.13;;;1.15;;
24619;SDS011;12763;55.802;37.404;2022-07-29T07:37:38;2.15;;;1.25;;
24619;SDS011;12763;55.802;37.404;2022-07-29T07:40:06;3.20;;;1.40;;
24619;SDS011;12763;55.802;37.404;2022-07-29T07:42:33;5.95;;;1.30;;
24619;SDS011;12763;55.802;37.404;2022-07-29T07:44:59;1.52;;;1.10;;
24619;SDS011;12763;55.802;37.404;2022-07-29T07:47:25;2.50;;;1.10;;
24619;SDS011;12763;55.802;37.404;2022-07-29T07:49:51;3.38;;;1.15;;
24619;SDS011;12763;55.802;37.404;2022-07-29T07:52:19;3.08;;;1.20;;
24619;SDS011;12763;55.802;37.404;2022-07-29T07:54:46;1.83;;;1.10;;
24619;SDS011;12763;55.802;37.404;2022-07-29T07:57:13;1.42;;;1.08;;
24619;SDS011;12763;55.802;37.404;2022-07-29T07:59:40;5.55;;;1.00;;
24619;SDS011;12763;55.802;37.404;2022-07-29T08:02:06;10.40;;;1.70;;
24619;SDS011;12763;55.802;37.404;2022-07-29T08:04:33;3.83;;;1.45;;
24619;SDS011;12763;55.802;37.404;2022-07-29T08:06:59;3.17;;;1.33;;
24619;SDS011;12763;55.802;37.404;2022-07-29T08:09:26;2.90;;;1.00;;
24619;SDS011;12763;55.802;37.404;2022-07-29T08:11:53;2.88;;;1.15;;
24619;SDS011;12763;55.802;37.404;2022-07-29T08:14:19;2.05;;;1.27;;
24619;SDS011;12763;55.802;37.404;2022-07-29T08:16:45;8.23;;;1.10;;
24619;SDS011;12763;55.802;37.404;2022-07-29T08:19:12;1.20;;;1.10;;
24619;SDS011;12763;55.802;37.404;2022-07-29T08:21:39;4.95;;;1.10;;
24619;SDS011;12763;55.802;37.404;2022-07-29T08:24:05;2.92;;;1.40;;
24619;SDS011;12763;55.802;37.404;2022-07-29T08:26:50;2.60;;;1.33;;
24619;SDS011;12763;55.802;37.404;2022-07-29T08:29:16;6.18;;;1.15;;
24619;SDS011;12763;55.802;37.404;2022-07-29T08:31:42;2.22;;;1.30;;
24619;SDS011;12763;55.802;37.404;2022-07-29T08:34:08;2.08;;;1.20;;
24619;SDS011;12763;55.802;37.404;2022-07-29T08:36:34;1.35;;;1.00;;
24619;SDS011;12763;55.802;37.404;2022-07-29T08:39:01;2.60;;;1.35;;
24619;SDS011;12763;55.802;37.404;2022-07-29T08:41:27;8.80;;;1.38;;
24619;SDS011;12763;55.802;37.404;2022-07-29T08:43:53;1.23;;;1.00;;
24619;SDS011;12763;55.802;37.404;2022-07-29T08:46:20;1.90;;;1.17;;
24619;SDS011;12763;55.802;37.404;2022-07-29T08:48:46;3.03;;;1.05;;
24619;SDS011;12763;55.802;37.404;2022-07-29T08:51:13;4.40;;;1.20;;
24619;SDS011;12763;55.802;37.404;2022-07-29T08:53:41;1.70;;;1.10;;
24619;SDS011;12763;55.802;37.404;2022-07-29T08:56:12;2.72;;;0.90;;
24619;SDS011;12763;55.802;37.404;2022-07-29T08:58:39;2.10;;;1.13;;
24619;SDS011;12763;55.802;37.404;2022-07-29T09:01:06;6.78;;;1.30;;
24619;SDS011;12763;55.802;37.404;2022-07-29T09:03:34;3.00;;;1.20;;
24619;SDS011;12763;55.802;37.404;2022-07-29T09:06:03;1.42;;;1.10;;
24619;SDS011;12763;55.802;37.404;2022-07-29T09:08:30;5.15;;;1.30;;
24619;SDS011;12763;55.802;37.404;2022-07-29T09:10:58;3.28;;;1.40;;
24619;SDS011;12763;55.802;37.404;2022-07-29T09:13:26;5.13;;;1.35;;
24619;SDS011;12763;55.802;37.404;2022-07-29T09:15:52;2.35;;;1.20;;
24619;SDS011;12763;55.802;37.404;2022-07-29T09:18:35;2.60;;;1.20;;
24619;SDS011;12763;55.802;37.404;2022-07-29T09:21:06;1.55;;;1.13;;
24619;SDS011;12763;55.802;37.404;2022-07-29T09:24:08;4.68;;;1.58;;
24619;SDS011;12763;55.802;37.404;2022-07-29T09:26:42;4.13;;;1.08;;
24619;SDS011;12763;55.802;37.404;2022-07-29T09:29:13;1.17;;;1.02;;
24619;SDS011;12763;55.802;37.404;2022-07-29T09:31:45;4.45;;;1.48;;
24619;SDS011;12763;55.802;37.404;2022-07-29T09:34:25;3.65;;;1.40;;
24619;SDS011;12763;55.802;37.404;2022-07-29T09:36:57;1.67;;;1.38;;
24619;SDS011;12763;55.802;37.404;2022-07-29T09:39:27;4.93;;;1.00;;
24619;SDS011;12763;55.802;37.404;2022-07-29T09:41:55;1.63;;;0.93;;
24619;SDS011;12763;55.802;37.404;2022-07-29T09:44:23;1.55;;;0.90;;
24619;SDS011;12763;55.802;37.404;2022-07-29T09:46:56;1.02;;;0.80;;
24619;SDS011;12763;55.802;37.404;2022-07-29T09:49:32;0.90;;;0.90;;
24619;SDS011;12763;55.802;37.404;2022-07-29T09:52:08;2.05;;;0.90;;
24619;SDS011;12763;55.802;37.404;2022-07-29T09:54:36;3.13;;;1.00;;
24619;SDS011;12763;55.802;37.404;2022-07-29T09:57:03;2.90;;;1.20;;
24619;SDS011;12763;55.802;37.404;2022-07-29T09:59:32;2.88;;;1.25;;
24619;SDS011;12763;55.802;37.404;2022-07-29T10:01:58;1.10;;;1.00;;
24619;SDS011;12763;55.802;37.404;2022-07-29T10:04:36;2.67;;;1.02;;
24619;SDS011;12763;55.802;37.404;2022-07-29T10:07:03;2.05;;;1.10;;
24619;SDS011;12763;55.802;37.404;2022-07-29T10:09:30;1.33;;;1.13;;
24619;SDS011;12763;55.802;37.404;2022-07-29T10:12:10;5.32;;;1.23;;
24619;SDS011;12763;55.802;37.404;2022-07-29T10:14:41;1.20;;;0.90;;
24619;SDS011;12763;55.802;37.404;2022-07-29T10:17:08;1.35;;;1.00;;
24619;SDS011;12763;55.802;37.404;2022-07-29T10:19:36;1.00;;;0.90;;
24619;SDS011;12763;55.802;37.404;2022-07-29T10:22:04;3.00;;;1.30;;
24619;SDS011;12763;55.802;37.404;2022-07-29T10:24:32;2.85;;;1.15;;
24619;SDS011;12763;55.802;37.404;2022-07-29T10:27:00;1.23;;;0.82;;
24619;SDS011;12763;55.802;37.404;2022-07-29T10:29:28;3.80;;;1.13;;
24619;SDS011;12763;55.802;37.404;2022-07-29T10:34:51;3.53;;;0.90;;
24619;SDS011;12763;55.802;37.404;2022-07-29T10:37:23;2.95;;;1.13;;
24619;SDS011;12763;55.802;37.404;2022-07-29T10:43:22;4.07;;;0.95;;
24619;SDS011;12763;55.802;37.404;2022-07-29T10:45:54;2.78;;;0.95;;
24619;SDS011;12763;55.802;37.404;2022-07-29T10:48:23;2.90;;;1.13;;
24619;SDS011;12763;55.802;37.404;2022-07-29T10:50:53;0.80;;;0.80;;
24619;SDS011;12763;55.802;37.404;2022-07-29T10:53:59;2.00;;;1.05;;
24619;SDS011;12763;55.802;37.404;2022-07-29T10:56:28;1.30;;;1.00;;
24619;SDS011;12763;55.802;37.404;2022-07-29T11:01:45;3.13;;;0.88;;
24619;SDS011;12763;55.802;37.404;2022-07-29T11:04:11;1.30;;;1.20;;
24619;SDS011;12763;55.802;37.404;2022-07-29T11:09:22;1.25;;;0.90;;
24619;SDS011;12763;55.802;37.404;2022-07-29T11:11:48;1.38;;;0.80;;
24619;SDS011;12763;55.802;37.404;2022-07-29T11:14:14;3.35;;;0.90;;
24619;SDS011;12763;55.802;37.404;2022-07-29T11:16:59;2.88;;;1.08;;
24619;SDS011;12763;55.802;37.404;2022-07-29T11:19:30;1.08;;;0.98;;
24619;SDS011;12763;55.802;37.404;2022-07-29T11:21:56;1.48;;;0.88;;
24619;SDS011;12763;55.802;37.404;2022-07-29T11:24:24;2.28;;;0.80;;
24619;SDS011;12763;55.802;37.404;2022-07-29T11:29:48;1.65;;;0.75;;
24619;SDS011;12763;55.802;37.404;2022-07-29T11:32:17;1.60;;;1.02;;
24619;SDS011;12763;55.802;37.404;2022-07-29T11:34:45;5.15;;;1.50;;
24619;SDS011;12763;55.802;37.404;2022-07-29T11:39:40;2.15;;;1.00;;
24619;SDS011;12763;55.802;37.404;2022-07-29T11:47:21;2.08;;;1.30;;
24619;SDS011;12763;55.802;37.404;2022-07-29T11:49:48;1.40;;;1.30;;
24619;SDS011;12763;55.802;37.404;2022-07-29T11:52:16;1.13;;;0.90;;
24619;SDS011;12763;55.802;37.404;2022-07-29T11:54:43;4.38;;;1.10;;
24619;SDS011;12763;55.802;37.404;2022-07-29T11:57:10;3.60;;;1.17;;
24619;SDS011;12763;55.802;37.404;2022-07-29T11:59:40;4.35;;;1.10;;
24619;SDS011;12763;55.802;37.404;2022-07-29T12:02:07;3.15;;;1.27;;
24619;SDS011;12763;55.802;37.404;2022-07-29T12:04:47;1.30;;;0.90;;
24619;SDS011;12763;55.802;37.404;2022-07-29T12:07:27;4.25;;;1.33;;
24619;SDS011;12763;55.802;37.404;2022-07-29T12:12:21;2.80;;;1.08;;
24619;SDS011;12763;55.802;37.404;2022-07-29T12:14:48;1.20;;;0.77;;
24619;SDS011;12763;55.802;37.404;2022-07-29T12:19:56;2.78;;;1.02;;
24619;SDS011;12763;55.802;37.404;2022-07-29T12:22:45;3.15;;;1.10;;
24619;SDS011;12763;55.802;37.404;2022-07-29T12:25:13;1.55;;;1.00;;
24619;SDS011;12763;55.802;37.404;2022-07-29T12:27:41;6.65;;;1.50;;
24619;SDS011;12763;55.802;37.404;2022-07-29T12:30:12;2.53;;;1.63;;
24619;SDS011;12763;55.802;37.404;2022-07-29T12:32:42;2.60;;;1.83;;
24619;SDS011;12763;55.802;37.404;2022-07-29T12:37:40;2.47;;;1.42;;
24619;SDS011;12763;55.802;37.404;2022-07-29T12:40:08;3.30;;;1.20;;
24619;SDS011;12763;55.802;37.404;2022-07-29T12:42:36;3.92;;;0.93;;
24619;SDS011;12763;55.802;37.404;2022-07-29T12:45:03;1.33;;;1.13;;
24619;SDS011;12763;55.802;37.404;2022-07-29T12:47:30;5.32;;;1.65;;
24619;SDS011;12763;55.802;37.404;2022-07-29T12:50:09;2.95;;;1.17;;
24619;SDS011;12763;55.802;37.404;2022-07-29T12:52:43;2.13;;;1.10;;
24619;SDS011;12763;55.802;37.404;2022-07-29T12:55:11;1.95;;;1.17;;
24619;SDS011;12763;55.802;37.404;2022-07-29T13:00:13;1.13;;;0.88;;
24619;SDS011;12763;55.802;37.404;2022-07-29T13:02:39;4.63;;;0.95;;
24619;SDS011;12763;55.802;37.404;2022-07-29T13:05:07;5.07;;;1.08;;
24619;SDS011;12763;55.802;37.404;2022-07-29T13:07:34;5.47;;;0.93;;
24619;SDS011;12763;55.802;37.404;2022-07-29T13:10:17;1.55;;;0.80;;
24619;SDS011;12763;55.802;37.404;2022-07-29T13:13:04;5.97;;;0.98;;
24619;SDS011;12763;55.802;37.404;2022-07-29T13:15:40;1.17;;;0.85;;
24619;SDS011;12763;55.802;37.404;2022-07-29T13:18:29;4.20;;;0.90;;
24619;SDS011;12763;55.802;37.404;2022-07-29T13:20:57;2.85;;;1.33;;
24619;SDS011;12763;55.802;37.404;2022-07-29T13:23:37;1.20;;;0.85;;
24619;SDS011;12763;55.802;37.404;2022-07-29T13:26:06;1.13;;;1.02;;
24619;SDS011;12763;55.802;37.404;2022-07-29T13:28:33;4.10;;;1.00;;
24619;SDS011;12763;55.802;37.404;2022-07-29T13:30:59;1.58;;;1.30;;
24619;SDS011;12763;55.802;37.404;2022-07-29T13:33:25;3.42;;;1.00;;
24619;SDS011;12763;55.802;37.404;2022-07-29T13:35:51;1.90;;;0.85;;
24619;SDS011;12763;55.802;37.404;2022-07-29T13:38:17;2.65;;;1.10;;
24619;SDS011;12763;55.802;37.404;2022-07-29T13:40:43;1.25;;;0.80;;
24619;SDS011;12763;55.802;37.404;2022-07-29T13:43:10;1.63;;;0.80;;
24619;SDS011;12763;55.802;37.404;2022-07-29T13:45:36;8.70;;;1.40;;
24619;SDS011;12763;55.802;37.404;2022-07-29T13:48:02;3.30;;;1.00;;
24619;SDS011;12763;55.802;37.404;2022-07-29T13:50:29;1.15;;;0.90;;
24619;SDS011;12763;55.802;37.404;2022-07-29T13:52:55;3.70;;;1.13;;
24619;SDS011;12763;55.802;37.404;2022-07-29T13:55:20;3.78;;;1.00;;
24619;SDS011;12763;55.802;37.404;2022-07-29T13:57:47;1.98;;;1.00;;
24619;SDS011;12763;55.802;37.404;2022-07-29T14:00:13;3.33;;;1.48;;
24619;SDS011;12763;55.802;37.404;2022-07-29T14:02:40;2.70;;;1.10;;
24619;SDS011;12763;55.802;37.404;2022-07-29T14:05:06;4.40;;;1.27;;
24619;SDS011;12763;55.802;37.404;2022-07-29T14:07:33;1.65;;;0.82;;
24619;SDS011;12763;55.802;37.404;2022-07-29T14:09:59;1.10;;;0.82;;
24619;SDS011;12763;55.802;37.404;2022-07-29T14:12:25;2.00;;;1.60;;
24619;SDS011;12763;55.802;37.404;2022-07-29T14:14:51;4.18;;;1.10;;
24619;SDS011;12763;55.802;37.404;2022-07-29T14:17:17;1.15;;;1.00;;
24619;SDS011;12763;55.802;37.404;2022-07-29T14:19:43;1.95;;;1.27;;
24619;SDS011;12763;55.802;37.404;2022-07-29T14:22:09;4.53;;;1.33;;
24619;SDS011;12763;55.802;37.404;2022-07-29T14:24:35;1.70;;;1.33;;
24619;SDS011;12763;55.802;37.404;2022-07-29T14:27:02;1.13;;;1.00;;
24619;SDS011;12763;55.802;37.404;2022-07-29T14:29:28;3.08;;;1.27;;
24619;SDS011;12763;55.802;37.404;2022-07-29T14:31:54;3.60;;;1.38;;
24619;SDS011;12763;55.802;37.404;2022-07-29T14:34:20;3.80;;;1.20;;
24619;SDS011;12763;55.802;37.404;2022-07-29T14:36:46;1.00;;;0.93;;
24619;SDS011;12763;55.802;37.404;2022-07-29T14:39:12;0.95;;;0.82;;
24619;SDS011;12763;55.802;37.404;2022-07-29T14:41:38;1.13;;;0.88;;
24619;SDS011;12763;55.802;37.404;2022-07-29T14:44:04;1.67;;;1.00;;
24619;SDS011;12763;55.802;37.404;2022-07-29T14:46:30;1.73;;;1.05;;
24619;SDS011;12763;55.802;37.404;2022-07-29T14:48:56;2.42;;;1.20;;
24619;SDS011;12763;55.802;37.404;2022-07-29T14:51:22;4.10;;;1.27;;
24619;SDS011;12763;55.802;37.404;2022-07-29T14:53:48;3.10;;;1.08;;
24619;SDS011;12763;55.802;37.404;2022-07-29T14:56:14;4.20;;;1.40;;
24619;SDS011;12763;55.802;37.404;2022-07-29T14:58:40;6.72;;;1.65;;
24619;SDS011;12763;55.802;37.404;2022-07-29T15:01:06;1.98;;;1.10;;
24619;SDS011;12763;55.802;37.404;2022-07-29T15:03:32;4.40;;;1.40;;
24619;SDS011;12763;55.802;37.404;2022-07-29T15:05:57;5.13;;;1.10;;
24619;SDS011;12763;55.802;37.404;2022-07-29T15:08:23;6.28;;;1.40;;
24619;SDS011;12763;55.802;37.404;2022-07-29T15:10:50;2.03;;;1.20;;
24619;SDS011;12763;55.802;37.404;2022-07-29T15:13:16;7.00;;;1.70;;
24619;SDS011;12763;55.802;37.404;2022-07-29T15:15:42;6.97;;;1.95;;
24619;SDS011;12763;55.802;37.404;2022-07-29T15:18:09;1.83;;;1.52;;
24619;SDS011;12763;55.802;37.404;2022-07-29T15:20:35;1.50;;;1.20;;
24619;SDS011;12763;55.802;37.404;2022-07-29T15:23:01;7.47;;;1.40;;
24619;SDS011;12763;55.802;37.404;2022-07-29T15:25:27;3.97;;;1.45;;
24619;SDS011;12763;55.802;37.404;2022-07-29T15:27:53;5.22;;;1.42;;
24619;SDS011;12763;55.802;37.404;2022-07-29T15:30:19;8.48;;;1.40;;
24619;SDS011;12763;55.802;37.404;2022-07-29T15:32:46;1.95;;;1.30;;
24619;SDS011;12763;55.802;37.404;2022-07-29T15:35:12;3.28;;;1.38;;
24619;SDS011;12763;55.802;37.404;2022-07-29T15:37:38;3.17;;;1.55;;